Time;durP1;ratioP1;P1;durP2;ratioP2;P2;SDS_P1;SDS_P2;PMS_P1;PMS_P2;Temp;Humidity;BMP_temperature;BMP_pressure;BME280_temperature;BME280_humidity;BME280_pressure;Samples;Min_cycle;Max_cycle;Signal;HPM_P1;HPM_P2
2022/01/14 00:01:15;;;;;;;49.25;26.67;;;;;;;0.46;58.75;101952.44;5052228;28;20060;-85
2022/01/14 00:03:42;;;;;;;50.85;26.15;;;;;;;0.42;59.32;101949.91;5052713;28;20039;-85
2022/01/14 00:06:07;;;;;;;58.40;27.98;;;;;;;0.46;59.28;101952.44;5035342;28;20549;-85
2022/01/14 00:08:33;;;;;;;56.03;27.10;;;;;;;0.50;59.17;101950.63;5053133;28;20032;-85
2022/01/14 00:11:00;;;;;;;59.85;28.65;;;;;;;0.43;59.08;101938.41;5056959;28;20055;-85
2022/01/14 00:14:09;;;;;;;56.45;27.50;;;;;;;0.36;59.22;101939.44;5056466;28;20064;-85
2022/01/14 00:16:19;;;;;;;57.88;26.45;;;;;;;0.31;59.35;101933.34;5053894;28;20044;-85
2022/01/14 00:18:45;;;;;;;55.88;27.50;;;;;;;0.25;59.31;101936.97;5056812;28;20082;-85
2022/01/14 00:21:10;;;;;;;60.97;28.92;;;;;;;0.25;59.76;101930.81;5038292;28;20021;-85
2022/01/14 00:23:39;;;;;;;56.92;29.38;;;;;;;0.18;59.86;101935.34;5056204;28;20024;-85
2022/01/14 00:34:05;;;;;;;54.50;28.00;;;;;;;0.21;59.76;101934.44;5056658;28;20452;-84
2022/01/14 00:36:30;;;;;;;61.15;27.55;;;;;;;0.16;60.07;101938.91;5056587;28;20127;-85
2022/01/14 00:38:56;;;;;;;67.82;30.27;;;;;;;0.16;60.22;101939.78;5055962;28;20024;-85
2022/01/14 00:41:21;;;;;;;58.83;31.02;;;;;;;0.21;60.12;101935.31;5055732;28;20021;-85
2022/01/14 00:43:48;;;;;;;56.55;26.55;;;;;;;0.30;60.12;101932.50;5055770;28;20110;-85
2022/01/14 00:46:13;;;;;;;59.67;29.05;;;;;;;0.21;59.65;101939.72;5055808;28;20032;-86
2022/01/14 00:48:39;;;;;;;55.40;27.63;;;;;;;0.11;60.20;101923.13;5055765;28;20405;-85
2022/01/14 00:51:05;;;;;;;57.70;27.77;;;;;;;0.17;59.89;101924.78;5056154;28;20020;-86
2022/01/14 00:53:30;;;;;;;59.00;27.17;;;;;;;0.06;60.27;101922.34;5054888;28;20526;-86
2022/01/14 00:56:06;;;;;;;58.30;26.10;;;;;;;0.24;60.48;101929.06;5055673;28;20053;-86
2022/01/14 01:01:15;;;;;;;54.70;26.83;;;;;;;0.22;59.92;101896.47;5055219;28;20051;-86
2022/01/14 01:03:41;;;;;;;53.40;26.13;;;;;;;0.29;59.53;101895.47;5055548;28;20466;-85
2022/01/14 01:06:07;;;;;;;57.45;28.88;;;;;;;0.45;59.92;101907.50;5037169;28;20086;-85
2022/01/14 01:08:34;;;;;;;57.20;28.23;;;;;;;0.36;59.23;101897.97;5055003;28;20071;-85
2022/01/14 01:11:03;;;;;;;60.35;28.38;;;;;;;0.29;59.21;101885.75;5055667;28;20097;-86
2022/01/14 01:13:33;;;;;;;61.47;30.75;;;;;;;0.26;59.50;101891.09;5054926;28;20025;-85
2022/01/14 01:15:59;;;;;;;62.05;32.65;;;;;;;0.17;60.22;101890.41;5055616;28;20033;-85
2022/01/14 01:18:25;;;;;;;69.03;33.40;;;;;;;0.19;59.87;101886.81;5055388;28;20028;-86
2022/01/14 01:20:51;;;;;;;64.28;33.20;;;;;;;0.12;59.66;101865.81;5055563;28;20108;-85
2022/01/14 01:23:17;;;;;;;59.30;31.83;;;;;;;0.17;59.93;101880.69;5054775;28;20050;-85
2022/01/14 01:25:48;;;;;;;63.35;31.42;;;;;;;0.04;59.88;101852.72;5055025;28;20446;-85
2022/01/14 01:28:14;;;;;;;60.97;28.15;;;;;;;0.19;59.81;101870.06;5055129;28;20047;-86
2022/01/14 01:31:04;;;;;;;57.10;27.75;;;;;;;0.19;59.90;101859.50;5055137;28;20470;-86
2022/01/14 01:33:29;;;;;;;60.33;29.00;;;;;;;0.26;59.73;101861.13;5037148;28;20072;-86
2022/01/14 01:35:56;;;;;;;50.05;25.35;;;;;;;0.13;59.39;101836.69;5055246;28;20059;-85
2022/01/14 01:38:22;;;;;;;58.03;27.88;;;;;;;0.24;59.81;101844.41;5055091;28;20402;-86
2022/01/14 01:40:48;;;;;;;55.10;27.20;;;;;;;0.32;59.81;101859.25;5055007;28;20108;-86
2022/01/14 01:43:15;;;;;;;56.08;27.70;;;;;;;0.41;59.12;101847.59;5054663;28;20068;-85
2022/01/14 01:45:41;;;;;;;60.60;27.88;;;;;;;0.33;59.33;101823.06;5036773;28;20365;-85
2022/01/14 01:48:07;;;;;;;60.95;28.38;;;;;;;0.32;58.96;101813.38;5036635;28;20020;-84
2022/01/14 01:50:36;;;;;;;54.40;27.63;;;;;;;0.46;58.80;101808.66;5036655;28;20108;-84
2022/01/14 01:53:02;;;;;;;54.85;26.10;;;;;;;0.40;58.49;101808.78;5054376;28;20021;-85
2022/01/14 01:55:28;;;;;;;60.90;28.02;;;;;;;0.41;58.28;101821.13;5053340;28;20056;-85
2022/01/14 01:57:53;;;;;;;56.95;28.65;;;;;;;0.37;58.73;101792.97;5053414;28;20025;-87
2022/01/14 02:00:23;;;;;;;59.05;28.45;;;;;;;0.53;58.58;101805.00;5054212;28;20470;-87
2022/01/14 02:02:49;;;;;;;59.33;27.98;;;;;;;0.53;58.25;101789.09;5054569;28;20072;-85
2022/01/14 02:05:16;;;;;;;56.88;27.35;;;;;;;0.57;57.63;101801.38;5053544;28;20077;-85
2022/01/14 02:07:42;;;;;;;52.70;25.88;;;;;;;0.44;58.22;101799.91;5053417;28;20055;-85
2022/01/14 02:10:07;;;;;;;54.40;26.75;;;;;;;0.46;58.03;101803.38;5053935;28;20052;-85
2022/01/14 02:12:37;;;;;;;56.00;26.50;;;;;;;0.45;58.02;101791.06;5053275;28;20086;-85
2022/01/14 02:15:14;;;;;;;48.80;25.58;;;;;;;0.37;57.81;101785.03;5035371;28;20056;-85
2022/01/14 02:23:01;;;;;;;58.03;25.80;;;;;;;0.35;57.79;101779.78;5054106;28;20086;-84
2022/01/14 02:25:30;;;;;;;55.40;24.90;;;;;;;0.25;58.12;101757.06;5053520;28;20036;-84
2022/01/14 02:28:05;;;;;;;65.25;25.40;;;;;;;0.35;57.93;101774.50;5052945;28;20514;-85
2022/01/14 02:30:33;;;;;;;55.42;26.00;;;;;;;0.38;57.96;101773.56;5053212;28;20013;-85
2022/01/14 02:32:59;;;;;;;57.67;24.77;;;;;;;0.40;57.75;101771.75;5034410;28;20021;-85
2022/01/14 02:35:25;;;;;;;50.60;23.67;;;;;;;0.39;57.38;101744.44;5052898;28;20029;-85
2022/01/14 02:37:51;;;;;;;48.17;24.98;;;;;;;0.51;57.93;101751.22;5052973;28;20396;-85
2022/01/14 02:40:18;;;;;;;50.20;24.80;;;;;;;0.56;57.37;101752.00;5053104;28;20059;-85
2022/01/14 02:42:44;;;;;;;47.83;24.05;;;;;;;0.64;57.71;101759.78;5052855;28;20021;-85
2022/01/14 02:45:11;;;;;;;42.53;22.98;;;;;;;0.77;57.09;101753.25;5053177;28;20021;-85
2022/01/14 02:47:37;;;;;;;47.25;23.10;;;;;;;0.84;57.06;101758.41;5052254;28;20023;-86
2022/01/14 02:50:07;;;;;;;49.75;22.60;;;;;;;0.81;56.80;101737.28;5053209;28;20021;-85
2022/01/14 02:55:19;;;;;;;48.20;23.98;;;;;;;0.93;56.15;101747.59;5008269;28;1286015;-85
2022/01/14 02:57:52;;;;;;;49.17;24.83;;;;;;;0.90;56.33;101725.59;5053728;28;20032;-84
2022/01/14 03:00:21;;;;;;;51.88;25.27;;;;;;;0.89;56.49;101708.84;5053962;28;20422;-85
2022/01/14 03:02:49;;;;;;;53.95;24.35;;;;;;;0.93;56.11;101709.63;5053400;28;20025;-85
2022/01/14 03:05:16;;;;;;;46.53;23.73;;;;;;;1.01;56.01;101721.78;5053497;28;20056;-85
2022/01/14 03:07:42;;;;;;;56.40;25.27;;;;;;;0.71;56.05;101701.34;5035410;28;20124;-85
2022/01/14 03:10:10;;;;;;;51.63;26.10;;;;;;;0.80;56.24;101703.75;5053590;28;20112;-85
2022/01/14 03:12:38;;;;;;;47.60;23.65;;;;;;;0.88;56.15;101709.75;5035603;28;20394;-85
2022/01/14 03:15:04;;;;;;;48.25;24.52;;;;;;;0.91;56.26;101712.34;5053061;28;20036;-87
2022/01/14 03:17:30;;;;;;;49.63;26.08;;;;;;;0.84;56.06;101705.44;5054532;28;20036;-86
2022/01/14 03:19:58;;;;;;;56.65;26.00;;;;;;;0.79;56.28;101702.03;5053965;28;20029;-86
2022/01/14 03:23:05;;;;;;;46.10;24.42;;;;;;;0.68;56.39;101709.34;5053691;28;20032;-86
2022/01/14 03:28:00;;;;;;;55.05;25.00;;;;;;;0.77;56.77;101693.25;5053694;28;20044;-84
2022/01/14 03:30:25;;;;;;;48.65;25.70;;;;;;;0.76;56.55;101690.66;5053114;28;20025;-86
2022/01/14 03:32:51;;;;;;;50.97;25.67;;;;;;;0.73;56.78;101686.31;5052994;28;20107;-85
2022/01/14 03:35:16;;;;;;;51.75;25.00;;;;;;;0.79;56.40;101696.75;5053035;28;20029;-85
2022/01/14 03:37:42;;;;;;;50.45;24.75;;;;;;;0.68;56.58;101696.13;5034774;28;20112;-85
2022/01/14 03:40:08;;;;;;;51.03;24.67;;;;;;;0.51;56.94;101669.19;5053226;28;20025;-85
2022/01/14 03:42:33;;;;;;;58.67;25.02;;;;;;;0.43;57.50;101679.06;5052879;28;20479;-85
2022/01/14 03:44:59;;;;;;;55.72;25.65;;;;;;;0.50;57.37;101680.66;5055964;28;20049;-85
2022/01/14 03:47:25;;;;;;;51.13;25.65;;;;;;;0.28;57.61;101650.31;5057546;28;20025;-85
2022/01/14 03:49:51;;;;;;;64.97;25.55;;;;;;;0.52;57.36;101684.16;5056909;28;20485;-86
2022/01/14 03:52:17;;;;;;;52.90;24.63;;;;;;;0.47;57.53;101672.81;5057318;28;20502;-85
2022/01/14 03:54:42;;;;;;;46.55;23.45;;;;;;;0.51;57.35;101671.84;5057806;28;20052;-86
2022/01/14 03:57:08;;;;;;;50.53;23.95;;;;;;;0.48;57.49;101675.44;5057182;28;20094;-85
2022/01/14 03:59:33;;;;;;;52.65;25.75;;;;;;;0.50;57.76;101683.31;5038692;28;20123;-85
2022/01/14 04:01:59;;;;;;;49.88;25.33;;;;;;;0.41;57.98;101667.66;5056513;28;20037;-85
2022/01/14 04:04:25;;;;;;;51.05;26.25;;;;;;;0.35;58.09;101678.38;5056762;28;20025;-85
2022/01/14 04:06:50;;;;;;;56.67;24.70;;;;;;;0.28;57.91;101658.25;5056970;28;20029;-86
2022/01/14 04:09:15;;;;;;;56.05;24.80;;;;;;;0.24;58.07;101648.66;5038637;28;20112;-85
2022/01/14 04:11:44;;;;;;;56.25;25.67;;;;;;;0.35;57.83;101667.78;5056655;28;20013;-85
2022/01/14 04:16:50;;;;;;;52.80;26.95;;;;;;;0.38;57.94;101668.59;5057077;28;20423;-85
2022/01/14 04:19:15;;;;;;;54.35;24.35;;;;;;;0.45;57.55;101658.75;5057169;28;20033;-85
2022/01/14 04:21:41;;;;;;;50.58;26.35;;;;;;;0.43;57.85;101665.81;5056851;28;20021;-85
2022/01/14 04:24:06;;;;;;;58.92;27.33;;;;;;;0.27;57.94;101656.53;5057042;28;20382;-85
2022/01/14 04:26:32;;;;;;;53.17;24.98;;;;;;;0.27;58.17;101667.97;5056692;28;20045;-85
2022/01/14 04:28:57;;;;;;;58.70;26.00;;;;;;;0.26;58.19;101662.72;5056684;28;20402;-85
2022/01/14 04:31:23;;;;;;;54.78;26.75;;;;;;;0.29;58.56;101652.06;5056635;28;20107;-84
2022/01/14 04:33:49;;;;;;;53.92;25.77;;;;;;;0.39;58.01;101669.47;5056393;28;20071;-86
2022/01/14 04:36:14;;;;;;;48.63;24.90;;;;;;;0.31;58.15;101639.66;5037827;28;20478;-85
2022/01/14 04:38:40;;;;;;;51.40;26.55;;;;;;;0.42;58.48;101658.81;5056246;28;20028;-84
2022/01/14 04:41:05;;;;;;;52.30;27.55;;;;;;;0.48;58.33;101637.50;5037569;28;20035;-84
2022/01/14 04:43:31;;;;;;;55.00;27.08;;;;;;;0.46;57.94;101631.34;5056674;28;20107;-85
2022/01/14 04:48:31;;;;;;;51.15;24.85;;;;;;;0.47;57.75;101628.69;5055755;28;20037;-85
2022/01/14 04:50:57;;;;;;;51.28;25.55;;;;;;;0.49;58.11;101623.34;5055884;28;20025;-86
2022/01/14 04:53:22;;;;;;;59.40;23.85;;;;;;;0.42;58.44;101619.13;5055652;28;20093;-85
2022/01/14 04:55:50;;;;;;;54.78;26.30;;;;;;;0.38;58.11;101620.09;5055543;28;20074;-86
2022/01/14 04:58:15;;;;;;;52.50;26.10;;;;;;;0.44;58.15;101619.94;5056534;28;20471;-87
2022/01/14 05:00:41;;;;;;;59.53;26.23;;;;;;;0.27;58.38;101606.25;5056063;28;20125;-87
2022/01/14 05:03:07;;;;;;;59.92;26.90;;;;;;;0.31;58.69;101603.50;5055762;28;20162;-87
2022/01/14 05:05:36;;;;;;;53.47;25.75;;;;;;;0.20;58.16;101583.50;5055478;28;20029;-83
2022/01/14 05:08:05;;;;;;;53.03;27.38;;;;;;;0.34;57.97;101592.84;5055132;28;20029;-85
2022/01/14 05:12:57;;;;;;;58.88;27.70;;;;;;;0.36;58.60;101601.63;5054943;28;20459;-84
2022/01/14 05:15:23;;;;;;;58.10;26.45;;;;;;;0.38;58.63;101598.94;5055015;28;20508;-83
2022/01/14 05:17:49;;;;;;;57.28;27.70;;;;;;;0.31;58.28;101570.88;5055603;28;20068;-84
2022/01/14 05:20:17;;;;;;;53.67;27.45;;;;;;;0.41;58.46;101591.78;5055377;28;20035;-83
2022/01/14 05:22:43;;;;;;;58.00;27.63;;;;;;;0.26;58.73;101583.34;5055650;28;20101;-84
2022/01/14 05:25:10;;;;;;;56.38;28.05;;;;;;;0.28;58.05;101598.28;5055370;28;20028;-83
2022/01/14 05:27:36;;;;;;;60.20;27.42;;;;;;;0.32;58.75;101604.38;5055281;28;20040;-85
2022/01/14 05:30:04;;;;;;;58.45;26.83;;;;;;;0.30;58.87;101598.25;5055553;28;20145;-85
2022/01/14 05:32:30;;;;;;;71.45;30.50;;;;;;;0.35;58.84;101604.28;5054699;28;20115;-86
2022/01/14 05:34:55;;;;;;;69.20;29.85;;;;;;;0.34;58.42;101586.66;5055395;28;20049;-83
2022/01/14 05:37:21;;;;;;;58.67;28.13;;;;;;;0.45;59.02;101612.00;5055271;28;20032;-84
2022/01/14 05:39:46;;;;;;;62.17;27.63;;;;;;;0.47;58.49;101596.06;5055020;28;20029;-85
2022/01/14 05:42:12;;;;;;;62.13;27.08;;;;;;;0.43;58.16;101589.09;5054915;28;20039;-85
2022/01/14 05:44:38;;;;;;;52.88;25.27;;;;;;;0.41;58.17;101562.69;5054553;28;20027;-86
2022/01/14 05:47:05;;;;;;;51.35;25.00;;;;;;;0.52;58.17;101575.66;5058204;28;20068;-85
2022/01/14 05:49:31;;;;;;;57.53;27.65;;;;;;;0.58;57.55;101575.50;5060823;28;20056;-83
2022/01/14 05:51:56;;;;;;;51.33;25.88;;;;;;;0.63;57.50;101552.44;5055093;28;20103;-82
2022/01/14 05:54:22;;;;;;;57.08;25.42;;;;;;;0.78;57.52;101567.91;5036145;28;20461;-83
2022/01/14 05:56:48;;;;;;;61.83;23.08;;;;;;;0.89;57.02;101571.13;5054230;28;20032;-81
2022/01/14 05:59:14;;;;;;;58.75;25.05;;;;;;;0.83;57.03;101555.41;5035985;28;20044;-81
2022/01/14 06:01:40;;;;;;;47.20;23.38;;;;;;;0.96;56.70;101555.94;5036207;28;20108;-81
2022/01/14 06:04:06;;;;;;;53.00;26.48;;;;;;;1.04;56.51;101552.16;5055110;28;20029;-85
2022/01/14 06:06:32;;;;;;;61.17;26.60;;;;;;;1.17;56.00;101549.19;5054377;28;20056;-85
2022/01/14 06:08:58;;;;;;;52.72;25.25;;;;;;;1.19;55.83;101537.66;5054667;28;20052;-84
2022/01/14 06:11:24;;;;;;;58.42;25.52;;;;;;;1.06;55.54;101489.44;5055792;28;20498;-86
2022/01/14 06:13:50;;;;;;;48.78;23.00;;;;;;;1.18;55.33;101508.53;5055292;28;20696;-84
2022/01/14 06:16:16;;;;;;;53.65;25.63;;;;;;;1.38;55.03;101532.66;5059404;28;20085;-86
2022/01/14 06:18:41;;;;;;;61.55;29.25;;;;;;;1.27;55.05;101518.88;5044048;28;20029;-85
2022/01/14 06:21:07;;;;;;;56.55;25.83;;;;;;;1.16;55.14;101510.38;5056682;28;20067;-85
2022/01/14 06:23:33;;;;;;;53.38;24.80;;;;;;;1.31;55.24;101516.09;5060017;28;20044;-85
2022/01/14 06:25:59;;;;;;;49.25;23.80;;;;;;;1.37;54.88;101509.75;5057651;28;20064;-86
2022/01/14 06:28:24;;;;;;;58.95;26.73;;;;;;;1.26;54.45;101486.19;5058293;28;20025;-85
2022/01/14 06:30:50;;;;;;;59.22;22.70;;;;;;;1.32;54.42;101493.09;5054061;28;20025;-85
2022/01/14 06:33:16;;;;;;;52.10;23.27;;;;;;;1.30;54.36;101502.88;5036072;28;20469;-85
2022/01/14 06:35:41;;;;;;;56.50;23.60;;;;;;;1.39;54.28;101499.97;5058152;28;20025;-85
2022/01/14 06:38:06;;;;;;;47.50;23.15;;;;;;;1.27;54.17;101466.75;5055080;28;20047;-85
2022/01/14 06:40:33;;;;;;;48.42;22.10;;;;;;;1.55;54.08;101488.00;5055550;28;20029;-85
2022/01/14 06:42:59;;;;;;;51.30;20.90;;;;;;;1.56;53.93;101485.28;5054777;28;20028;-84
2022/01/14 06:45:25;;;;;;;60.75;24.98;;;;;;;1.55;53.88;101485.34;5054276;28;20375;-85
2022/01/14 06:47:50;;;;;;;43.42;21.48;;;;;;;1.47;53.79;101471.44;5054015;28;20029;-85
2022/01/14 06:50:17;;;;;;;59.47;24.58;;;;;;;1.55;53.28;101458.84;5053381;28;20441;-85
2022/01/14 06:52:42;;;;;;;50.90;23.98;;;;;;;1.70;53.38;101461.00;5036153;28;20029;-85
2022/01/14 06:55:09;;;;;;;58.50;25.42;;;;;;;1.59;53.52;101452.53;5053761;28;20199;-85
2022/01/14 06:57:35;;;;;;;59.10;25.10;;;;;;;1.64;53.62;101471.81;5053579;28;20104;-84
2022/01/14 07:00:05;;;;;;;48.53;23.00;;;;;;;1.70;53.50;101470.72;5053584;28;20028;-85
2022/01/14 07:02:31;;;;;;;46.20;20.63;;;;;;;1.63;53.23;101438.25;5053733;28;20029;-83
2022/01/14 07:04:56;;;;;;;49.67;23.13;;;;;;;1.69;53.53;101459.25;5053867;28;20032;-85
2022/01/14 07:07:22;;;;;;;55.15;24.05;;;;;;;1.71;53.22;101453.91;5053794;28;20490;-85
2022/01/14 07:10:05;;;;;;;49.20;21.30;;;;;;;1.79;53.33;101447.44;5053744;28;20325;-82
2022/01/14 07:12:37;;;;;;;50.75;21.23;;;;;;;1.95;52.91;101440.75;5053842;28;20127;-86
2022/01/14 07:15:08;;;;;;;56.87;22.73;;;;;;;1.96;52.63;101453.06;5035598;28;20043;-81
2022/01/14 07:17:34;;;;;;;45.13;23.17;;;;;;;1.83;52.59;101419.91;5053098;28;20029;-84
2022/01/14 07:20:06;;;;;;;51.13;21.23;;;;;;;2.01;52.48;101444.97;5053052;28;20290;-83
2022/01/14 07:22:31;;;;;;;48.90;21.30;;;;;;;1.94;52.49;101449.59;5052874;28;20029;-82
2022/01/14 07:24:58;;;;;;;43.72;21.25;;;;;;;2.01;52.36;101437.88;5053479;28;20107;-82
2022/01/14 07:27:23;;;;;;;38.67;20.77;;;;;;;1.99;52.55;101413.16;5052857;28;20445;-81
2022/01/14 07:29:49;;;;;;;46.92;22.60;;;;;;;2.10;52.55;101423.44;5053035;28;20028;-82
2022/01/14 07:32:14;;;;;;;55.85;20.70;;;;;;;2.17;52.58;101436.41;5053183;28;20032;-80
2022/01/14 07:34:40;;;;;;;48.90;21.27;;;;;;;2.11;52.31;101411.91;5053507;28;20083;-81
2022/01/14 07:37:05;;;;;;;49.80;21.20;;;;;;;2.31;52.46;101428.00;5035148;28;20458;-81
2022/01/14 07:39:31;;;;;;;39.80;19.02;;;;;;;2.40;52.23;101425.03;5052765;28;20032;-80
2022/01/14 07:41:56;;;;;;;37.40;18.45;;;;;;;2.35;52.11;101412.84;5052483;28;20411;-83
2022/01/14 07:44:22;;;;;;;44.00;20.55;;;;;;;2.47;51.80;101409.75;5052393;28;20029;-81
2022/01/14 07:46:48;;;;;;;45.25;18.88;;;;;;;2.55;51.86;101411.19;5052233;28;20025;-82
2022/01/14 07:49:14;;;;;;;49.35;22.50;;;;;;;2.65;51.75;101420.59;5053656;28;20055;-84
2022/01/14 07:51:40;;;;;;;54.53;27.35;;;;;;;2.64;51.73;101416.19;5052431;28;20078;-89
2022/01/14 07:54:06;;;;;;;49.40;24.77;;;;;;;2.77;52.17;101411.28;5036070;28;20045;-85
2022/01/14 07:56:45;;;;;;;60.90;26.27;;;;;;;2.86;52.11;101410.94;5053010;28;20445;-81
2022/01/14 07:59:14;;;;;;;59.97;23.08;;;;;;;2.92;51.63;101410.72;5052387;28;20507;-82
2022/01/14 08:01:40;;;;;;;56.10;24.73;;;;;;;2.98;51.51;101383.06;5052508;28;20108;-84
2022/01/14 08:04:06;;;;;;;52.08;24.85;;;;;;;3.08;51.55;101387.97;5053100;28;20104;-85
2022/01/14 08:06:34;;;;;;;57.75;25.23;;;;;;;3.10;51.44;101380.78;5054316;28;20067;-85
2022/01/14 08:09:00;;;;;;;61.05;27.10;;;;;;;3.04;51.63;101358.91;5034576;28;20033;-85
2022/01/14 08:11:25;;;;;;;46.67;24.33;;;;;;;2.99;51.40;101351.13;5052496;28;20099;-85
2022/01/14 08:13:51;;;;;;;55.70;24.77;;;;;;;3.10;51.30;101340.94;5034866;28;20056;-84
2022/01/14 08:16:16;;;;;;;62.63;27.83;;;;;;;3.18;51.46;101354.78;5034205;28;20430;-84
2022/01/14 08:18:42;;;;;;;54.05;23.13;;;;;;;3.18;51.19;101322.88;5052005;28;20370;-85
2022/01/14 08:21:07;;;;;;;46.75;24.05;;;;;;;3.51;50.99;101349.06;5052034;28;20032;-85
2022/01/14 08:28:47;;;;;;;40.85;21.25;;;;;;;3.67;50.62;101331.53;5200120;23;20418;-85
2022/01/14 08:31:14;;;;;;;41.58;20.45;;;;;;;3.82;50.71;101352.19;5037287;28;20031;-80
2022/01/14 08:33:42;;;;;;;37.08;19.92;;;;;;;3.89;50.33;101342.13;5055979;28;20029;-82
2022/01/14 08:36:07;;;;;;;62.33;19.85;;;;;;;4.00;50.57;101345.19;5056193;28;20033;-81
2022/01/14 08:38:33;;;;;;;53.10;19.83;;;;;;;4.07;50.37;101326.22;5056081;28;20109;-78
2022/01/14 08:40:58;;;;;;;38.67;18.52;;;;;;;4.11;50.61;101333.16;5055420;28;20035;-78
2022/01/14 08:43:24;;;;;;;42.03;20.13;;;;;;;4.18;50.51;101318.66;5037513;28;20033;-79
2022/01/14 08:45:49;;;;;;;55.78;19.15;;;;;;;4.28;50.76;101327.94;5055369;28;20467;-80
2022/01/14 08:48:15;;;;;;;56.90;18.65;;;;;;;4.36;50.79;101319.63;5055513;28;20082;-79
2022/01/14 08:50:40;;;;;;;39.45;18.65;;;;;;;4.54;50.49;101304.59;5055398;28;20017;-81
2022/01/14 08:53:09;;;;;;;41.10;19.35;;;;;;;4.63;50.48;101302.38;5056166;28;20449;-81
2022/01/14 08:55:36;;;;;;;47.63;17.83;;;;;;;4.79;50.82;101291.88;5055392;28;20033;-80
2022/01/14 08:58:03;;;;;;;38.63;18.20;;;;;;;4.80;50.92;101282.97;5055568;28;20470;-77
2022/01/14 09:00:30;;;;;;;41.28;17.60;;;;;;;4.97;50.92;101274.16;5049192;28;20055;-79
2022/01/14 09:02:56;;;;;;;44.65;17.63;;;;;;;5.06;51.20;101269.25;5049689;28;20390;-80
2022/01/14 09:05:22;;;;;;;44.17;16.17;;;;;;;5.14;50.97;101259.06;5056022;28;20096;-83
2022/01/14 09:07:48;;;;;;;48.85;16.25;;;;;;;5.23;50.76;101271.94;5055209;28;20397;-81
2022/01/14 09:10:14;;;;;;;35.78;15.57;;;;;;;5.24;51.40;101263.00;5056107;28;20029;-82
2022/01/14 09:12:43;;;;;;;41.10;16.15;;;;;;;5.25;51.60;101248.75;5055457;28;20128;-80
2022/01/14 09:15:09;;;;;;;42.05;15.93;;;;;;;5.19;51.58;101226.84;5055485;28;20029;-81
2022/01/14 09:17:36;;;;;;;50.42;16.20;;;;;;;5.42;51.44;101232.75;5056153;28;20029;-82
2022/01/14 09:20:05;;;;;;;40.15;17.17;;;;;;;5.46;51.59;101237.00;5056173;28;20029;-81
2022/01/14 09:22:31;;;;;;;48.45;17.30;;;;;;;5.47;51.55;101214.69;5037256;28;20040;-84
2022/01/14 09:24:59;;;;;;;38.95;16.20;;;;;;;5.43;51.76;101182.94;5056101;28;20490;-83
2022/01/14 09:27:27;;;;;;;38.35;15.63;;;;;;;5.58;51.77;101194.63;5059021;28;20053;-82
2022/01/14 09:29:54;;;;;;;32.83;16.67;;;;;;;5.65;51.52;101186.25;5055205;28;20048;-83
2022/01/14 09:32:20;;;;;;;42.50;18.40;;;;;;;5.79;51.50;101183.69;5071069;28;20016;-82
2022/01/14 09:34:46;;;;;;;36.10;17.08;;;;;;;5.79;51.78;101164.13;5042548;28;20037;-83
2022/01/14 09:37:12;;;;;;;48.17;18.08;;;;;;;5.93;51.80;101164.31;5058120;28;20060;-81
2022/01/14 09:39:39;;;;;;;47.17;17.15;;;;;;;6.01;51.70;101162.97;5050813;28;20037;-82
2022/01/14 09:42:07;;;;;;;37.55;17.75;;;;;;;6.09;51.62;101142.97;5043211;28;20032;-84
2022/01/14 09:44:32;;;;;;;37.28;17.92;;;;;;;6.13;51.54;101137.41;5049938;28;20033;-85
2022/01/14 09:46:58;;;;;;;70.32;18.30;;;;;;;6.04;51.75;101169.94;5022132;28;20087;-84
2022/01/14 09:49:23;;;;;;;47.80;17.95;;;;;;;6.08;52.21;101128.78;5036005;28;20025;-83
2022/01/14 09:51:50;;;;;;;41.30;16.75;;;;;;;6.21;52.57;101145.00;5036633;28;20029;-81
2022/01/14 09:54:16;;;;;;;34.63;16.50;;;;;;;6.28;52.09;101127.66;5038140;28;20033;-81
2022/01/14 09:56:44;;;;;;;44.28;17.13;;;;;;;6.08;52.70;101104.75;5022028;28;20086;-83
2022/01/14 09:59:10;;;;;;;35.92;16.48;;;;;;;6.31;52.34;101115.00;5035021;28;20030;-81
2022/01/14 10:01:44;;;;;;;42.13;19.75;;;;;;;6.46;52.08;101119.47;5034826;28;20035;-81
2022/01/14 10:04:21;;;;;;;38.60;19.45;;;;;;;6.37;52.37;101125.34;5034345;28;20021;-79
2022/01/14 10:06:49;;;;;;;46.78;18.48;;;;;;;6.53;52.39;101098.63;5034403;28;20573;-82
2022/01/14 10:09:22;;;;;;;49.50;17.20;;;;;;;6.60;52.83;101092.00;5034156;28;20036;-82
2022/01/14 10:12:13;;;;;;;36.25;18.83;;;;;;;6.84;51.92;101092.38;5034238;28;20439;-82
2022/01/14 10:14:40;;;;;;;69.45;17.85;;;;;;;6.65;52.40;101076.53;5034095;28;20029;-79
2022/01/14 10:17:08;;;;;;;52.63;21.95;;;;;;;6.68;52.40;101068.34;5033983;28;20025;-80
2022/01/14 10:19:40;;;;;;;33.45;15.35;;;;;;;6.72;52.25;101069.03;5033741;28;20444;-83
2022/01/14 10:22:21;;;;;;;134.20;53.83;;;;;;;6.85;52.57;101060.19;5034928;28;20126;-83
2022/01/14 10:25:19;;;;;;;202.50;67.65;;;;;;;6.98;52.28;101045.13;5034523;28;20078;-83
2022/01/14 10:27:48;;;;;;;40.83;18.98;;;;;;;6.99;51.74;101056.69;4989980;28;20562;-83
2022/01/14 10:30:16;;;;;;;66.45;29.90;;;;;;;6.95;52.21;101044.47;5033636;28;20044;-82
2022/01/14 10:32:44;;;;;;;57.20;26.27;;;;;;;6.99;53.01;101032.63;5016159;28;20025;-80
2022/01/14 10:35:13;;;;;;;40.78;15.77;;;;;;;7.17;52.40;101030.66;5046260;28;20025;-79
2022/01/14 10:37:39;;;;;;;34.45;15.93;;;;;;;7.14;52.19;101012.97;5053064;28;20033;-82
2022/01/14 10:40:13;;;;;;;36.70;14.07;;;;;;;7.30;52.06;101027.16;5053357;28;20139;-81
2022/01/14 10:42:40;;;;;;;35.53;13.45;;;;;;;7.26;52.24;101014.03;5053580;28;20508;-80
2022/01/14 10:45:23;;;;;;;26.90;13.18;;;;;;;7.35;52.41;101016.16;5053626;28;20478;-82
2022/01/14 10:47:59;;;;;;;29.70;13.57;;;;;;;7.48;52.06;101020.66;5053424;28;20028;-79
2022/01/14 10:50:34;;;;;;;23.35;13.02;;;;;;;7.45;52.17;100986.06;5054319;28;20021;-82
2022/01/14 10:53:02;;;;;;;38.72;15.00;;;;;;;7.57;52.14;100990.63;5052762;28;20025;-82
2022/01/14 10:55:34;;;;;;;38.58;16.17;;;;;;;7.46;52.36;100966.34;5054157;28;20036;-85
2022/01/14 10:58:04;;;;;;;24.50;13.60;;;;;;;7.57;51.97;100979.94;5054081;28;20029;-83
2022/01/14 11:00:39;;;;;;;23.23;10.80;;;;;;;7.61;51.92;100961.88;5054810;28;20529;-82
2022/01/14 11:03:05;;;;;;;24.67;11.82;;;;;;;7.79;51.67;100973.22;5049955;28;20022;-80
2022/01/14 11:05:32;;;;;;;27.67;14.85;;;;;;;7.85;51.28;100956.75;5041313;28;20025;-83
2022/01/14 11:07:57;;;;;;;36.72;14.63;;;;;;;8.03;51.46;100976.97;5053173;28;20072;-79
2022/01/14 11:10:24;;;;;;;25.88;13.82;;;;;;;8.04;50.60;100957.28;5060635;28;20021;-80
2022/01/14 11:12:54;;;;;;;41.65;14.82;;;;;;;8.01;51.20;100962.84;5071345;28;20116;-81
2022/01/14 11:15:23;;;;;;;25.92;12.27;;;;;;;8.17;50.68;100951.00;5053206;28;20036;-81
2022/01/14 11:17:51;;;;;;;30.10;14.02;;;;;;;8.04;50.51;100925.13;5053612;28;20020;-81
2022/01/14 11:20:29;;;;;;;59.85;15.60;;;;;;;8.16;51.08;100929.69;5036774;28;20056;-82
2022/01/14 11:23:14;;;;;;;29.02;12.80;;;;;;;8.34;50.33;100923.13;5053459;28;20478;-80
2022/01/14 11:25:55;;;;;;;25.63;12.75;;;;;;;8.45;50.91;100920.56;5053171;28;20505;-83
2022/01/14 11:28:28;;;;;;;20.90;11.60;;;;;;;8.52;50.29;100904.91;5035300;28;20463;-83
2022/01/14 11:30:53;;;;;;;;;;;;;;;8.48;50.50;100906.94;5053782;28;20452;-83
2022/01/14 11:33:19;;;;;;;23.63;11.82;;;;;;;8.48;50.55;100888.19;5036200;28;20015;-84
2022/01/14 11:35:55;;;;;;;16.23;9.80;;;;;;;8.66;50.51;100886.03;5055683;28;20032;-82
2022/01/14 11:38:40;;;;;;;25.52;12.63;;;;;;;8.72;50.10;100870.41;5055704;28;20486;-83
2022/01/14 11:41:06;;;;;;;23.00;11.95;;;;;;;8.81;49.86;100873.41;5055009;28;20074;-82
2022/01/14 11:43:46;;;;;;;20.70;11.50;;;;;;;8.88;50.31;100878.22;5052672;28;20040;-81
2022/01/14 11:46:31;;;;;;;22.85;11.95;;;;;;;8.91;49.83;100882.50;5053620;28;20093;-82
2022/01/14 11:48:57;;;;;;;24.48;11.20;;;;;;;8.92;49.47;100868.16;5034510;28;20444;-79
2022/01/14 11:51:23;;;;;;;20.95;11.15;;;;;;;8.84;50.16;100863.31;5053326;28;20055;-81
2022/01/14 11:53:51;;;;;;;26.38;11.40;;;;;;;8.93;50.08;100875.25;5053443;28;20550;-80